sensor_id;sensor_type;location;lat;lon;timestamp;pressure;altitude;pressure_sealevel;temperature;humidity
64521;BME280;50896;46.714;17.322;2023-02-01T00:00:27;100709.78;;;0.54;100.00
64521;BME280;50896;46.714;17.322;2023-02-01T00:02:53;100717.91;;;0.49;100.00
64521;BME280;50896;46.714;17.322;2023-02-01T00:05:20;100705.00;;;0.46;100.00
64521;BME280;50896;46.714;17.322;2023-02-01T00:07:48;100708.16;;;0.51;100.00
64521;BME280;50896;46.714;17.322;2023-02-01T00:10:17;100713.09;;;0.42;100.00
64521;BME280;50896;46.714;17.322;2023-02-01T00:12:44;100718.88;;;0.32;100.00
64521;BME280;50896;46.714;17.322;2023-02-01T00:15:11;100726.25;;;0.26;100.00
64521;BME280;50896;46.714;17.322;2023-02-01T00:17:38;100718.41;;;0.26;100.00
64521;BME280;50896;46.714;17.322;2023-02-01T00:20:05;100714.34;;;0.20;100.00
64521;BME280;50896;46.714;17.322;2023-02-01T00:22:32;100719.22;;;0.26;100.00
64521;BME280;50896;46.714;17.322;2023-02-01T00:24:59;100723.44;;;0.29;100.00
64521;BME280;50896;46.714;17.322;2023-02-01T00:27:26;100725.47;;;0.24;100.00
64521;BME280;50896;46.714;17.322;2023-02-01T00:29:54;100718.56;;;0.23;100.00
64521;BME280;50896;46.714;17.322;2023-02-01T00:32:22;100715.41;;;0.32;100.00
64521;BME280;50896;46.714;17.322;2023-02-01T00:34:49;100716.38;;;0.31;100.00
64521;BME280;50896;46.714;17.322;2023-02-01T00:37:16;100723.63;;;0.26;100.00
64521;BME280;50896;46.714;17.322;2023-02-01T00:39:42;100730.22;;;0.17;100.00
64521;BME280;50896;46.714;17.322;2023-02-01T00:42:09;100720.50;;;0.19;100.00
64521;BME280;50896;46.714;17.322;2023-02-01T00:44:36;100723.09;;;0.05;100.00
64521;BME280;50896;46.714;17.322;2023-02-01T00:47:03;100729.06;;;0.07;100.00
64521;BME280;50896;46.714;17.322;2023-02-01T00:49:30;100738.50;;;0.09;100.00
64521;BME280;50896;46.714;17.322;2023-02-01T00:51:57;100742.38;;;0.02;100.00
64521;BME280;50896;46.714;17.322;2023-02-01T00:54:23;100742.66;;;-0.03;100.00
64521;BME280;50896;46.714;17.322;2023-02-01T00:56:50;100751.50;;;-0.05;100.00
64521;BME280;50896;46.714;17.322;2023-02-01T00:59:18;100749.50;;;0.00;100.00
64521;BME280;50896;46.714;17.322;2023-02-01T01:01:44;100735.75;;;-0.04;100.00
64521;BME280;50896;46.714;17.322;2023-02-01T01:04:11;100742.25;;;-0.11;100.00
64521;BME280;50896;46.714;17.322;2023-02-01T01:06:38;100724.78;;;-0.10;100.00
64521;BME280;50896;46.714;17.322;2023-02-01T01:09:06;100737.34;;;-0.17;100.00
64521;BME280;50896;46.714;17.322;2023-02-01T01:11:36;100754.97;;;-0.21;100.00
64521;BME280;50896;46.714;17.322;2023-02-01T01:14:06;100764.81;;;-0.10;100.00
64521;BME280;50896;46.714;17.322;2023-02-01T01:16:34;100751.75;;;-0.10;100.00
64521;BME280;50896;46.714;17.322;2023-02-01T01:19:01;100746.69;;;-0.13;100.00
64521;BME280;50896;46.714;17.322;2023-02-01T01:21:29;100746.38;;;-0.07;100.00
64521;BME280;50896;46.714;17.322;2023-02-01T01:23:57;100737.53;;;-0.04;100.00
64521;BME280;50896;46.714;17.322;2023-02-01T01:26:26;100722.06;;;0.07;100.00
64521;BME280;50896;46.714;17.322;2023-02-01T01:28:58;100718.88;;;0.02;100.00
64521;BME280;50896;46.714;17.322;2023-02-01T01:31:26;100718.59;;;0.07;100.00
64521;BME280;50896;46.714;17.322;2023-02-01T01:33:56;100709.72;;;0.09;100.00
64521;BME280;50896;46.714;17.322;2023-02-01T01:36:24;100689.50;;;0.13;100.00
64521;BME280;50896;46.714;17.322;2023-02-01T01:38:51;100699.72;;;0.02;100.00
64521;BME280;50896;46.714;17.322;2023-02-01T01:41:23;100683.53;;;-0.05;100.00
64521;BME280;50896;46.714;17.322;2023-02-01T01:43:56;100678.97;;;-0.02;100.00
64521;BME280;50896;46.714;17.322;2023-02-01T01:46:30;100672.16;;;-0.04;100.00
64521;BME280;50896;46.714;17.322;2023-02-01T01:49:09;100662.13;;;-0.12;100.00
64521;BME280;50896;46.714;17.322;2023-02-01T01:51:42;100668.88;;;-0.08;100.00
64521;BME280;50896;46.714;17.322;2023-02-01T01:54:17;100676.13;;;-0.13;100.00
64521;BME280;50896;46.714;17.322;2023-02-01T01:56:50;100679.69;;;-0.14;100.00
64521;BME280;50896;46.714;17.322;2023-02-01T01:59:20;100691.16;;;-0.16;100.00
64521;BME280;50896;46.714;17.322;2023-02-01T02:01:47;100685.75;;;-0.13;100.00
64521;BME280;50896;46.714;17.322;2023-02-01T02:04:15;100681.72;;;-0.19;100.00
64521;BME280;50896;46.714;17.322;2023-02-01T02:07:01;100674.53;;;-0.15;100.00
64521;BME280;50896;46.714;17.322;2023-02-01T02:09:30;100674.63;;;-0.17;100.00
64521;BME280;50896;46.714;17.322;2023-02-01T02:11:56;100675.47;;;-0.16;100.00
64521;BME280;50896;46.714;17.322;2023-02-01T02:14:25;100665.13;;;-0.18;100.00
64521;BME280;50896;46.714;17.322;2023-02-01T02:32:59;100663.66;;;-0.08;100.00
64521;BME280;50896;46.714;17.322;2023-02-01T02:35:39;100658.00;;;0.00;100.00
64521;BME280;50896;46.714;17.322;2023-02-01T02:43:33;100654.16;;;-0.25;100.00
64521;BME280;50896;46.714;17.322;2023-02-01T02:46:25;100659.28;;;-0.23;100.00
64521;BME280;50896;46.714;17.322;2023-02-01T02:49:35;100663.00;;;-0.27;100.00
64521;BME280;50896;46.714;17.322;2023-02-01T02:52:15;100664.09;;;-0.31;100.00
64521;BME280;50896;46.714;17.322;2023-02-01T02:55:04;100657.97;;;-0.30;100.00
64521;BME280;50896;46.714;17.322;2023-02-01T02:57:36;100656.78;;;-0.25;100.00
64521;BME280;50896;46.714;17.322;2023-02-01T03:00:27;100650.88;;;-0.28;100.00
64521;BME280;50896;46.714;17.322;2023-02-01T03:03:14;100660.22;;;-0.24;100.00
64521;BME280;50896;46.714;17.322;2023-02-01T03:05:59;100663.69;;;-0.40;100.00
64521;BME280;50896;46.714;17.322;2023-02-01T03:08:29;100656.63;;;-0.38;100.00
64521;BME280;50896;46.714;17.322;2023-02-01T03:11:02;100648.16;;;-0.27;100.00
64521;BME280;50896;46.714;17.322;2023-02-01T03:13:58;100656.94;;;-0.28;100.00
64521;BME280;50896;46.714;17.322;2023-02-01T03:16:28;100663.88;;;-0.43;100.00
64521;BME280;50896;46.714;17.322;2023-02-01T03:19:03;100664.19;;;-0.49;100.00
64521;BME280;50896;46.714;17.322;2023-02-01T03:21:43;100671.03;;;-0.46;100.00
64521;BME280;50896;46.714;17.322;2023-02-01T03:24:25;100670.25;;;-0.32;100.00
64521;BME280;50896;46.714;17.322;2023-02-01T03:32:21;100686.34;;;-0.24;100.00
64521;BME280;50896;46.714;17.322;2023-02-01T03:34:48;100674.63;;;-0.17;100.00
64521;BME280;50896;46.714;17.322;2023-02-01T03:37:25;100693.31;;;-0.09;100.00
64521;BME280;50896;46.714;17.322;2023-02-01T03:40:08;100688.88;;;-0.07;100.00
64521;BME280;50896;46.714;17.322;2023-02-01T03:42:42;100701.16;;;-0.09;100.00
64521;BME280;50896;46.714;17.322;2023-02-01T03:45:27;100697.34;;;-0.03;100.00
64521;BME280;50896;46.714;17.322;2023-02-01T03:47:58;100711.44;;;-0.06;100.00
64521;BME280;50896;46.714;17.322;2023-02-01T03:50:30;100699.28;;;0.09;100.00
64521;BME280;50896;46.714;17.322;2023-02-01T03:53:02;100703.28;;;0.01;100.00
64521;BME280;50896;46.714;17.322;2023-02-01T03:55:32;100697.13;;;0.02;100.00
64521;BME280;50896;46.714;17.322;2023-02-01T04:00:35;100703.34;;;-0.01;100.00
64521;BME280;50896;46.714;17.322;2023-02-01T04:03:06;100700.75;;;-0.01;100.00
64521;BME280;50896;46.714;17.322;2023-02-01T04:05:34;100699.00;;;0.14;100.00
64521;BME280;50896;46.714;17.322;2023-02-01T04:08:04;100703.41;;;0.13;100.00
64521;BME280;50896;46.714;17.322;2023-02-01T04:10:31;100692.44;;;0.23;100.00
64521;BME280;50896;46.714;17.322;2023-02-01T04:12:58;100698.31;;;0.26;100.00
64521;BME280;50896;46.714;17.322;2023-02-01T04:15:25;100704.41;;;0.27;100.00
64521;BME280;50896;46.714;17.322;2023-02-01T04:17:51;100703.19;;;0.32;100.00
64521;BME280;50896;46.714;17.322;2023-02-01T04:20:18;100704.50;;;0.25;100.00
64521;BME280;50896;46.714;17.322;2023-02-01T04:22:46;100714.53;;;0.17;100.00
64521;BME280;50896;46.714;17.322;2023-02-01T04:25:13;100713.88;;;0.13;100.00
64521;BME280;50896;46.714;17.322;2023-02-01T04:27:39;100713.22;;;0.10;100.00
64521;BME280;50896;46.714;17.322;2023-02-01T04:30:05;100720.78;;;0.14;100.00
64521;BME280;50896;46.714;17.322;2023-02-01T04:32:37;100725.16;;;0.14;100.00
64521;BME280;50896;46.714;17.322;2023-02-01T04:35:04;100729.22;;;0.04;100.00
64521;BME280;50896;46.714;17.322;2023-02-01T04:37:32;100738.09;;;0.01;100.00
64521;BME280;50896;46.714;17.322;2023-02-01T04:39:59;100734.13;;;-0.06;100.00
64521;BME280;50896;46.714;17.322;2023-02-01T04:42:25;100734.03;;;-0.05;100.00
64521;BME280;50896;46.714;17.322;2023-02-01T04:44:52;100752.88;;;-0.14;100.00
64521;BME280;50896;46.714;17.322;2023-02-01T04:47:19;100749.41;;;-0.14;100.00
64521;BME280;50896;46.714;17.322;2023-02-01T04:49:45;100746.53;;;-0.10;100.00
64521;BME280;50896;46.714;17.322;2023-02-01T04:52:12;100755.03;;;-0.06;100.00
64521;BME280;50896;46.714;17.322;2023-02-01T04:54:39;100741.28;;;-0.10;100.00
64521;BME280;50896;46.714;17.322;2023-02-01T04:57:06;100742.75;;;-0.04;100.00
64521;BME280;50896;46.714;17.322;2023-02-01T04:59:33;100757.16;;;-0.13;100.00
64521;BME280;50896;46.714;17.322;2023-02-01T05:01:59;100750.31;;;-0.15;100.00
64521;BME280;50896;46.714;17.322;2023-02-01T05:04:26;100762.38;;;-0.13;100.00
64521;BME280;50896;46.714;17.322;2023-02-01T05:06:53;100760.84;;;-0.17;100.00
64521;BME280;50896;46.714;17.322;2023-02-01T05:09:20;100753.28;;;-0.22;100.00
64521;BME280;50896;46.714;17.322;2023-02-01T05:11:48;100753.97;;;-0.18;100.00
64521;BME280;50896;46.714;17.322;2023-02-01T05:14:33;100747.56;;;-0.12;100.00
64521;BME280;50896;46.714;17.322;2023-02-01T05:17:00;100745.44;;;-0.22;100.00
64521;BME280;50896;46.714;17.322;2023-02-01T05:19:27;100745.78;;;-0.28;100.00
64521;BME280;50896;46.714;17.322;2023-02-01T05:21:53;100737.34;;;-0.17;100.00
64521;BME280;50896;46.714;17.322;2023-02-01T05:24:20;100739.47;;;-0.24;100.00
64521;BME280;50896;46.714;17.322;2023-02-01T05:26:48;100730.59;;;-0.21;100.00
64521;BME280;50896;46.714;17.322;2023-02-01T05:29:16;100727.91;;;-0.36;100.00
64521;BME280;50896;46.714;17.322;2023-02-01T05:31:45;100731.13;;;-0.30;100.00
64521;BME280;50896;46.714;17.322;2023-02-01T05:34:13;100743.41;;;-0.32;100.00
64521;BME280;50896;46.714;17.322;2023-02-01T05:36:40;100755.72;;;-0.35;100.00
64521;BME280;50896;46.714;17.322;2023-02-01T05:39:07;100756.72;;;-0.37;100.00
64521;BME280;50896;46.714;17.322;2023-02-01T05:41:34;100749.72;;;-0.37;100.00
64521;BME280;50896;46.714;17.322;2023-02-01T05:44:01;100750.69;;;-0.38;100.00
64521;BME280;50896;46.714;17.322;2023-02-01T05:46:29;100747.91;;;-0.35;100.00
64521;BME280;50896;46.714;17.322;2023-02-01T05:48:56;100749.72;;;-0.37;100.00
64521;BME280;50896;46.714;17.322;2023-02-01T05:51:23;100753.88;;;-0.32;100.00
64521;BME280;50896;46.714;17.322;2023-02-01T05:53:49;100757.25;;;-0.30;100.00
64521;BME280;50896;46.714;17.322;2023-02-01T05:56:16;100751.34;;;-0.34;100.00
64521;BME280;50896;46.714;17.322;2023-02-01T05:58:43;100743.41;;;-0.32;100.00
64521;BME280;50896;46.714;17.322;2023-02-01T06:01:10;100736.25;;;-0.29;100.00
64521;BME280;50896;46.714;17.322;2023-02-01T06:03:37;100722.50;;;-0.32;100.00
64521;BME280;50896;46.714;17.322;2023-02-01T06:06:04;100725.66;;;-0.42;100.00
64521;BME280;50896;46.714;17.322;2023-02-01T06:08:30;100731.19;;;-0.48;100.00
64521;BME280;50896;46.714;17.322;2023-02-01T06:11:03;100727.47;;;-0.44;100.00
64521;BME280;50896;46.714;17.322;2023-02-01T06:13:31;100731.78;;;-0.43;100.00
64521;BME280;50896;46.714;17.322;2023-02-01T06:16:01;100729.59;;;-0.35;100.00
64521;BME280;50896;46.714;17.322;2023-02-01T06:18:28;100730.19;;;-0.45;100.00
64521;BME280;50896;46.714;17.322;2023-02-01T06:20:58;100726.75;;;-0.46;100.00
64521;BME280;50896;46.714;17.322;2023-02-01T06:23:29;100729.44;;;-0.47;100.00
64521;BME280;50896;46.714;17.322;2023-02-01T06:26:04;100721.59;;;-0.47;100.00
64521;BME280;50896;46.714;17.322;2023-02-01T06:28:32;100728.06;;;-0.55;100.00
64521;BME280;50896;46.714;17.322;2023-02-01T06:31:06;100729.56;;;-0.66;100.00
64521;BME280;50896;46.714;17.322;2023-02-01T06:33:34;100731.41;;;-0.69;100.00
64521;BME280;50896;46.714;17.322;2023-02-01T06:36:04;100734.63;;;-0.63;100.00
64521;BME280;50896;46.714;17.322;2023-02-01T06:38:32;100739.47;;;-0.56;100.00
64521;BME280;50896;46.714;17.322;2023-02-01T06:41:02;100743.13;;;-0.76;100.00
64521;BME280;50896;46.714;17.322;2023-02-01T06:43:29;100743.19;;;-0.77;100.00
64521;BME280;50896;46.714;17.322;2023-02-01T06:46:05;100747.75;;;-0.81;100.00
64521;BME280;50896;46.714;17.322;2023-02-01T06:48:33;100737.06;;;-0.76;100.00
64521;BME280;50896;46.714;17.322;2023-02-01T06:51:01;100730.84;;;-0.74;100.00
64521;BME280;50896;46.714;17.322;2023-02-01T06:53:28;100752.03;;;-0.80;100.00
64521;BME280;50896;46.714;17.322;2023-02-01T06:56:00;100747.31;;;-0.89;100.00
64521;BME280;50896;46.714;17.322;2023-02-01T06:58:31;100745.00;;;-0.95;100.00
64521;BME280;50896;46.714;17.322;2023-02-01T07:01:05;100737.31;;;-0.81;100.00
64521;BME280;50896;46.714;17.322;2023-02-01T07:03:33;100733.66;;;-0.78;100.00
64521;BME280;50896;46.714;17.322;2023-02-01T07:05:59;100729.97;;;-0.74;100.00
64521;BME280;50896;46.714;17.322;2023-02-01T07:08:27;100740.94;;;-0.67;100.00
64521;BME280;50896;46.714;17.322;2023-02-01T07:10:54;100755.03;;;-0.54;100.00
64521;BME280;50896;46.714;17.322;2023-02-01T07:13:21;100761.31;;;-0.25;100.00
64521;BME280;50896;46.714;17.322;2023-02-01T07:15:48;100766.94;;;-0.01;100.00
64521;BME280;50896;46.714;17.322;2023-02-01T07:18:15;100758.66;;;0.07;100.00
64521;BME280;50896;46.714;17.322;2023-02-01T07:20:42;100748.53;;;0.17;100.00
64521;BME280;50896;46.714;17.322;2023-02-01T07:23:10;100742.75;;;0.26;100.00
64521;BME280;50896;46.714;17.322;2023-02-01T07:25:36;100750.78;;;0.23;100.00
64521;BME280;50896;46.714;17.322;2023-02-01T07:28:03;100752.66;;;0.05;100.00
64521;BME280;50896;46.714;17.322;2023-02-01T07:30:30;100752.66;;;0.05;100.00
64521;BME280;50896;46.714;17.322;2023-02-01T07:33:00;100754.09;;;0.11;100.00
64521;BME280;50896;46.714;17.322;2023-02-01T07:35:28;100758.31;;;0.13;100.00
64521;BME280;50896;46.714;17.322;2023-02-01T07:37:57;100764.97;;;0.19;100.00
64521;BME280;50896;46.714;17.322;2023-02-01T07:40:24;100774.66;;;0.33;100.00
64521;BME280;50896;46.714;17.322;2023-02-01T07:42:55;100777.00;;;0.38;100.00
64521;BME280;50896;46.714;17.322;2023-02-01T07:45:22;100762.66;;;0.29;100.00
64521;BME280;50896;46.714;17.322;2023-02-01T07:47:51;100774.41;;;0.22;100.00
64521;BME280;50896;46.714;17.322;2023-02-01T07:50:19;100778.28;;;0.30;100.00
64521;BME280;50896;46.714;17.322;2023-02-01T07:52:47;100770.34;;;0.32;100.00
64521;BME280;50896;46.714;17.322;2023-02-01T07:55:14;100766.28;;;0.26;100.00
64521;BME280;50896;46.714;17.322;2023-02-01T07:57:41;100770.69;;;0.26;100.00
64521;BME280;50896;46.714;17.322;2023-02-01T08:00:09;100775.41;;;0.35;100.00
64521;BME280;50896;46.714;17.322;2023-02-01T08:02:57;100786.63;;;0.37;100.00
64521;BME280;50896;46.714;17.322;2023-02-01T08:05:24;100785.00;;;0.34;100.00
64521;BME280;50896;46.714;17.322;2023-02-01T08:07:51;100787.44;;;0.38;100.00
64521;BME280;50896;46.714;17.322;2023-02-01T08:10:18;100782.50;;;0.33;100.00
64521;BME280;50896;46.714;17.322;2023-02-01T08:12:46;100794.97;;;0.44;100.00
64521;BME280;50896;46.714;17.322;2023-02-01T08:15:18;100786.00;;;0.48;100.00
64521;BME280;50896;46.714;17.322;2023-02-01T08:17:48;100792.94;;;0.49;100.00
64521;BME280;50896;46.714;17.322;2023-02-01T08:20:17;100782.63;;;0.46;100.00
64521;BME280;50896;46.714;17.322;2023-02-01T08:22:44;100792.97;;;0.63;100.00
64521;BME280;50896;46.714;17.322;2023-02-01T08:25:11;100796.75;;;0.74;100.00
64521;BME280;50896;46.714;17.322;2023-02-01T08:27:38;100800.38;;;0.71;100.00
64521;BME280;50896;46.714;17.322;2023-02-01T08:30:05;100805.53;;;0.73;100.00
64521;BME280;50896;46.714;17.322;2023-02-01T08:32:35;100796.59;;;0.77;100.00
64521;BME280;50896;46.714;17.322;2023-02-01T08:35:03;100783.25;;;0.65;100.00
64521;BME280;50896;46.714;17.322;2023-02-01T08:37:30;100786.81;;;0.64;100.00
64521;BME280;50896;46.714;17.322;2023-02-01T08:39:57;100783.56;;;0.75;100.00
64521;BME280;50896;46.714;17.322;2023-02-01T08:42:24;100766.19;;;0.74;100.00
64521;BME280;50896;46.714;17.322;2023-02-01T08:45:10;100765.22;;;0.75;100.00
64521;BME280;50896;46.714;17.322;2023-02-01T08:47:37;100769.63;;;0.75;100.00
64521;BME280;50896;46.714;17.322;2023-02-01T08:50:04;100771.06;;;0.80;100.00
64521;BME280;50896;46.714;17.322;2023-02-01T08:52:31;100778.63;;;0.85;100.00
64521;BME280;50896;46.714;17.322;2023-02-01T08:54:58;100777.50;;;0.89;100.00
64521;BME280;50896;46.714;17.322;2023-02-01T08:57:25;100760.38;;;0.83;100.00
64521;BME280;50896;46.714;17.322;2023-02-01T08:59:52;100758.34;;;0.89;100.00
64521;BME280;50896;46.714;17.322;2023-02-01T09:02:18;100776.00;;;0.85;100.00
64521;BME280;50896;46.714;17.322;2023-02-01T09:04:45;100787.84;;;1.07;100.00
64521;BME280;50896;46.714;17.322;2023-02-01T09:07:12;100780.59;;;0.96;100.00
64521;BME280;50896;46.714;17.322;2023-02-01T09:09:44;100783.84;;;0.85;100.00
64521;BME280;50896;46.714;17.322;2023-02-01T09:12:11;100790.13;;;0.82;100.00
64521;BME280;50896;46.714;17.322;2023-02-01T09:14:38;100777.50;;;0.89;100.00
64521;BME280;50896;46.714;17.322;2023-02-01T09:17:05;100775.28;;;0.83;100.00
64521;BME280;50896;46.714;17.322;2023-02-01T09:19:32;100784.03;;;0.82;100.00
64521;BME280;50896;46.714;17.322;2023-02-01T09:21:59;100768.25;;;0.83;100.00
64521;BME280;50896;46.714;17.322;2023-02-01T09:24:25;100765.47;;;0.87;100.00
64521;BME280;50896;46.714;17.322;2023-02-01T09:26:52;100772.03;;;0.94;100.00
64521;BME280;50896;46.714;17.322;2023-02-01T09:29:19;100754.72;;;1.06;100.00
64521;BME280;50896;46.714;17.322;2023-02-01T09:31:46;100725.75;;;1.23;100.00
64521;BME280;50896;46.714;17.322;2023-02-01T09:34:28;100736.69;;;1.30;100.00
64521;BME280;50896;46.714;17.322;2023-02-01T09:36:55;100733.94;;;1.46;100.00
64521;BME280;50896;46.714;17.322;2023-02-01T09:39:22;100730.25;;;1.63;100.00
64521;BME280;50896;46.714;17.322;2023-02-01T09:45:02;100724.84;;;1.93;100.00
64521;BME280;50896;46.714;17.322;2023-02-01T09:47:34;100719.88;;;2.16;100.00
64521;BME280;50896;46.714;17.322;2023-02-01T09:50:05;100700.94;;;2.25;100.00
64521;BME280;50896;46.714;17.322;2023-02-01T09:52:43;100693.72;;;2.42;100.00
64521;BME280;50896;46.714;17.322;2023-02-01T09:55:18;100694.16;;;2.61;100.00
64521;BME280;50896;46.714;17.322;2023-02-01T09:57:56;100693.31;;;2.86;100.00
64521;BME280;50896;46.714;17.322;2023-02-01T10:00:29;100680.28;;;3.11;100.00
64521;BME280;50896;46.714;17.322;2023-02-01T10:02:56;100670.59;;;3.24;100.00
64521;BME280;50896;46.714;17.322;2023-02-01T10:08:04;100671.66;;;3.83;100.00
64521;BME280;50896;46.714;17.322;2023-02-01T10:10:47;100666.94;;;3.99;100.00
64521;BME280;50896;46.714;17.322;2023-02-01T10:13:28;100659.88;;;4.00;100.00
64521;BME280;50896;46.714;17.322;2023-02-01T10:16:11;100645.59;;;4.15;100.00
64521;BME280;50896;46.714;17.322;2023-02-01T10:18:50;100649.31;;;4.24;100.00
64521;BME280;50896;46.714;17.322;2023-02-01T10:27:27;100638.25;;;4.88;100.00
64521;BME280;50896;46.714;17.322;2023-02-01T10:30:01;100632.28;;;5.09;100.00
64521;BME280;50896;46.714;17.322;2023-02-01T10:32:32;100632.13;;;5.22;100.00
64521;BME280;50896;46.714;17.322;2023-02-01T10:35:11;100632.72;;;5.37;100.00
64521;BME280;50896;46.714;17.322;2023-02-01T10:37:41;100608.75;;;5.28;100.00
64521;BME280;50896;46.714;17.322;2023-02-01T10:40:23;100607.50;;;5.44;99.77
64521;BME280;50896;46.714;17.322;2023-02-01T10:43:00;100606.44;;;5.46;99.48
64521;BME280;50896;46.714;17.322;2023-02-01T10:45:30;100622.00;;;5.50;98.52
64521;BME280;50896;46.714;17.322;2023-02-01T10:47:59;100623.22;;;5.57;98.52
64521;BME280;50896;46.714;17.322;2023-02-01T10:53:22;100609.63;;;5.94;99.57
64521;BME280;50896;46.714;17.322;2023-02-01T10:55:52;100600.66;;;5.85;96.24
64521;BME280;50896;46.714;17.322;2023-02-01T10:58:20;100583.88;;;5.54;94.38
64521;BME280;50896;46.714;17.322;2023-02-01T11:01:00;100590.19;;;5.30;97.87
64521;BME280;50896;46.714;17.322;2023-02-01T11:06:40;100589.88;;;5.01;99.59
64521;BME280;50896;46.714;17.322;2023-02-01T11:16:47;100574.69;;;4.48;100.00
64521;BME280;50896;46.714;17.322;2023-02-01T11:19:17;100584.97;;;4.51;100.00
64521;BME280;50896;46.714;17.322;2023-02-01T11:21:44;100567.03;;;4.44;100.00
64521;BME280;50896;46.714;17.322;2023-02-01T11:24:35;100573.03;;;4.58;100.00
64521;BME280;50896;46.714;17.322;2023-02-01T11:27:05;100557.56;;;4.65;100.00
64521;BME280;50896;46.714;17.322;2023-02-01T11:29:37;100559.13;;;4.78;100.00
64521;BME280;50896;46.714;17.322;2023-02-01T11:32:05;100556.81;;;4.96;100.00
64521;BME280;50896;46.714;17.322;2023-02-01T11:35:04;100556.31;;;5.14;100.00
64521;BME280;50896;46.714;17.322;2023-02-01T11:37:35;100559.91;;;5.13;100.00
64521;BME280;50896;46.714;17.322;2023-02-01T11:40:33;100547.69;;;5.12;100.00
64521;BME280;50896;46.714;17.322;2023-02-01T11:43:08;100548.16;;;5.17;100.00
64521;BME280;50896;46.714;17.322;2023-02-01T11:45:35;100546.06;;;5.00;100.00
64521;BME280;50896;46.714;17.322;2023-02-01T11:48:15;100529.66;;;4.96;100.00
64521;BME280;50896;46.714;17.322;2023-02-01T11:56:34;100513.00;;;4.95;100.00
64521;BME280;50896;46.714;17.322;2023-02-01T11:59:24;100516.75;;;4.82;100.00
64521;BME280;50896;46.714;17.322;2023-02-01T12:02:11;100517.06;;;4.88;100.00
64521;BME280;50896;46.714;17.322;2023-02-01T12:04:55;100520.44;;;4.90;100.00
64521;BME280;50896;46.714;17.322;2023-02-01T12:07:55;100505.94;;;4.96;100.00
64521;BME280;50896;46.714;17.322;2023-02-01T12:23:59;100488.34;;;4.85;100.00
64521;BME280;50896;46.714;17.322;2023-02-01T12:37:51;100475.59;;;4.24;100.00
64521;BME280;50896;46.714;17.322;2023-02-01T12:45:47;100462.19;;;4.04;100.00
64521;BME280;50896;46.714;17.322;2023-02-01T12:51:22;100447.59;;;4.00;100.00
64521;BME280;50896;46.714;17.322;2023-02-01T12:53:59;100453.47;;;4.15;100.00
64521;BME280;50896;46.714;17.322;2023-02-01T12:56:38;100445.22;;;4.31;100.00
64521;BME280;50896;46.714;17.322;2023-02-01T12:59:38;100447.84;;;4.42;100.00
64521;BME280;50896;46.714;17.322;2023-02-01T13:02:26;100453.94;;;4.43;100.00
64521;BME280;50896;46.714;17.322;2023-02-01T13:08:13;100458.50;;;4.18;100.00
64521;BME280;50896;46.714;17.322;2023-02-01T13:10:53;100454.06;;;4.07;100.00
64521;BME280;50896;46.714;17.322;2023-02-01T13:13:30;100443.31;;;4.10;100.00
64521;BME280;50896;46.714;17.322;2023-02-01T13:18:43;100422.97;;;3.90;100.00
64521;BME280;50896;46.714;17.322;2023-02-01T13:21:18;100425.63;;;3.90;100.00
64521;BME280;50896;46.714;17.322;2023-02-01T13:23:48;100441.88;;;3.95;100.00
64521;BME280;50896;46.714;17.322;2023-02-01T13:26:15;100437.09;;;4.00;100.00
64521;BME280;50896;46.714;17.322;2023-02-01T13:29:04;100450.97;;;4.02;100.00
64521;BME280;50896;46.714;17.322;2023-02-01T13:42:16;100482.06;;;3.97;100.00
64521;BME280;50896;46.714;17.322;2023-02-01T13:44:48;100492.81;;;3.94;100.00
64521;BME280;50896;46.714;17.322;2023-02-01T13:47:24;100498.06;;;3.83;100.00
64521;BME280;50896;46.714;17.322;2023-02-01T13:49:54;100488.22;;;3.73;100.00
64521;BME280;50896;46.714;17.322;2023-02-01T13:52:37;100510.22;;;3.72;100.00
64521;BME280;50896;46.714;17.322;2023-02-01T13:57:52;100546.25;;;3.94;100.00
64521;BME280;50896;46.714;17.322;2023-02-01T14:00:37;100550.94;;;3.91;100.00
64521;BME280;50896;46.714;17.322;2023-02-01T14:13:30;100582.03;;;4.08;100.00
64521;BME280;50896;46.714;17.322;2023-02-01T14:26:24;100563.09;;;3.92;100.00
64521;BME280;50896;46.714;17.322;2023-02-01T14:28:52;100549.50;;;3.98;100.00
64521;BME280;50896;46.714;17.322;2023-02-01T14:37:03;100572.03;;;4.14;100.00
64521;BME280;50896;46.714;17.322;2023-02-01T14:39:46;100586.63;;;4.18;100.00
64521;BME280;50896;46.714;17.322;2023-02-01T14:42:25;100599.63;;;4.08;100.00
64521;BME280;50896;46.714;17.322;2023-02-01T14:47:40;100576.63;;;3.99;100.00
64521;BME280;50896;46.714;17.322;2023-02-01T15:01:30;100574.16;;;4.08;100.00
64521;BME280;50896;46.714;17.322;2023-02-01T15:04:17;100565.16;;;4.00;100.00
64521;BME280;50896;46.714;17.322;2023-02-01T15:06:55;100580.22;;;3.98;100.00
64521;BME280;50896;46.714;17.322;2023-02-01T15:09:27;100574.13;;;3.97;100.00
64521;BME280;50896;46.714;17.322;2023-02-01T15:14:42;100573.19;;;3.98;100.00
64521;BME280;50896;46.714;17.322;2023-02-01T15:17:29;100562.78;;;3.97;100.00
64521;BME280;50896;46.714;17.322;2023-02-01T15:20:22;100564.34;;;3.99;100.00
64521;BME280;50896;46.714;17.322;2023-02-01T15:23:03;100567.31;;;4.06;100.00
64521;BME280;50896;46.714;17.322;2023-02-01T15:25:34;100559.47;;;4.17;100.00
64521;BME280;50896;46.714;17.322;2023-02-01T15:28:04;100567.31;;;4.06;100.00
64521;BME280;50896;46.714;17.322;2023-02-01T15:30:34;100559.31;;;4.07;100.00
64521;BME280;50896;46.714;17.322;2023-02-01T15:33:16;100561.22;;;4.05;100.00